sensor_id;sensor_type;location;lat;lon;timestamp;P1;durP1;ratioP1;P2;durP2;ratioP2
51840;SDS011;37888;53.246;6.658;2023-09-07T00:01:32;3.85;;;2.42;;
51840;SDS011;37888;53.246;6.658;2023-09-07T00:03:58;5.00;;;2.83;;
51840;SDS011;37888;53.246;6.658;2023-09-07T00:06:24;4.03;;;2.28;;
51840;SDS011;37888;53.246;6.658;2023-09-07T00:08:51;2.75;;;2.25;;
51840;SDS011;37888;53.246;6.658;2023-09-07T00:11:16;3.85;;;1.98;;
51840;SDS011;37888;53.246;6.658;2023-09-07T00:13:42;7.10;;;2.92;;
51840;SDS011;37888;53.246;6.658;2023-09-07T00:16:08;3.95;;;2.80;;
51840;SDS011;37888;53.246;6.658;2023-09-07T00:18:34;3.08;;;2.58;;
51840;SDS011;37888;53.246;6.658;2023-09-07T00:21:00;4.63;;;2.70;;
51840;SDS011;37888;53.246;6.658;2023-09-07T00:23:26;4.07;;;2.45;;
51840;SDS011;37888;53.246;6.658;2023-09-07T00:25:52;2.83;;;2.40;;
51840;SDS011;37888;53.246;6.658;2023-09-07T00:28:18;3.17;;;2.70;;
51840;SDS011;37888;53.246;6.658;2023-09-07T00:30:44;3.05;;;2.60;;
51840;SDS011;37888;53.246;6.658;2023-09-07T00:33:09;3.38;;;2.33;;
51840;SDS011;37888;53.246;6.658;2023-09-07T00:35:36;4.37;;;3.07;;
51840;SDS011;37888;53.246;6.658;2023-09-07T00:38:02;4.65;;;2.90;;
51840;SDS011;37888;53.246;6.658;2023-09-07T00:40:28;3.23;;;2.50;;
51840;SDS011;37888;53.246;6.658;2023-09-07T00:42:54;3.05;;;2.30;;
51840;SDS011;37888;53.246;6.658;2023-09-07T00:45:19;2.63;;;2.13;;
51840;SDS011;37888;53.246;6.658;2023-09-07T00:47:45;2.33;;;2.13;;
51840;SDS011;37888;53.246;6.658;2023-09-07T00:50:11;3.10;;;2.30;;
51840;SDS011;37888;53.246;6.658;2023-09-07T00:52:42;4.05;;;2.50;;
51840;SDS011;37888;53.246;6.658;2023-09-07T00:55:08;2.97;;;2.30;;
51840;SDS011;37888;53.246;6.658;2023-09-07T00:57:35;4.15;;;2.75;;
51840;SDS011;37888;53.246;6.658;2023-09-07T01:00:05;4.80;;;2.70;;
51840;SDS011;37888;53.246;6.658;2023-09-07T01:02:32;4.32;;;2.70;;
51840;SDS011;37888;53.246;6.658;2023-09-07T01:04:59;4.40;;;3.20;;
51840;SDS011;37888;53.246;6.658;2023-09-07T01:07:26;8.40;;;2.73;;
51840;SDS011;37888;53.246;6.658;2023-09-07T01:09:59;3.78;;;2.83;;
51840;SDS011;37888;53.246;6.658;2023-09-07T01:12:27;4.63;;;3.05;;
51840;SDS011;37888;53.246;6.658;2023-09-07T01:14:53;4.40;;;2.70;;
51840;SDS011;37888;53.246;6.658;2023-09-07T01:17:20;4.13;;;2.70;;
51840;SDS011;37888;53.246;6.658;2023-09-07T01:19:49;3.65;;;2.90;;
51840;SDS011;37888;53.246;6.658;2023-09-07T01:22:18;4.05;;;3.13;;
51840;SDS011;37888;53.246;6.658;2023-09-07T01:24:45;4.70;;;3.30;;
51840;SDS011;37888;53.246;6.658;2023-09-07T01:27:12;5.50;;;2.85;;
51840;SDS011;37888;53.246;6.658;2023-09-07T01:29:40;3.70;;;2.65;;
51840;SDS011;37888;53.246;6.658;2023-09-07T01:32:06;5.35;;;3.03;;
51840;SDS011;37888;53.246;6.658;2023-09-07T01:34:35;5.78;;;3.17;;
51840;SDS011;37888;53.246;6.658;2023-09-07T01:37:01;5.07;;;3.10;;
51840;SDS011;37888;53.246;6.658;2023-09-07T01:39:27;4.07;;;2.80;;
51840;SDS011;37888;53.246;6.658;2023-09-07T01:41:53;4.05;;;2.70;;
51840;SDS011;37888;53.246;6.658;2023-09-07T01:44:19;5.68;;;2.92;;
51840;SDS011;37888;53.246;6.658;2023-09-07T01:46:44;4.82;;;3.10;;
51840;SDS011;37888;53.246;6.658;2023-09-07T01:49:10;4.53;;;2.92;;
51840;SDS011;37888;53.246;6.658;2023-09-07T01:51:36;6.20;;;3.00;;
51840;SDS011;37888;53.246;6.658;2023-09-07T01:54:02;6.25;;;3.10;;
51840;SDS011;37888;53.246;6.658;2023-09-07T01:56:28;7.50;;;2.95;;
51840;SDS011;37888;53.246;6.658;2023-09-07T01:58:57;4.45;;;3.28;;
51840;SDS011;37888;53.246;6.658;2023-09-07T02:01:23;6.82;;;4.38;;
51840;SDS011;37888;53.246;6.658;2023-09-07T02:06:16;5.60;;;3.40;;
51840;SDS011;37888;53.246;6.658;2023-09-07T02:08:41;5.80;;;3.20;;
51840;SDS011;37888;53.246;6.658;2023-09-07T02:11:07;3.88;;;3.10;;
51840;SDS011;37888;53.246;6.658;2023-09-07T02:13:33;5.10;;;3.40;;
51840;SDS011;37888;53.246;6.658;2023-09-07T02:16:05;5.85;;;3.20;;
51840;SDS011;37888;53.246;6.658;2023-09-07T02:18:32;4.90;;;3.28;;
51840;SDS011;37888;53.246;6.658;2023-09-07T02:21:04;4.40;;;3.03;;
51840;SDS011;37888;53.246;6.658;2023-09-07T02:23:33;4.03;;;3.22;;
51840;SDS011;37888;53.246;6.658;2023-09-07T02:26:00;4.93;;;3.03;;
51840;SDS011;37888;53.246;6.658;2023-09-07T02:28:26;2.50;;;2.30;;
51840;SDS011;37888;53.246;6.658;2023-09-07T02:30:52;4.90;;;2.90;;
51840;SDS011;37888;53.246;6.658;2023-09-07T02:33:18;2.97;;;2.72;;
51840;SDS011;37888;53.246;6.658;2023-09-07T02:35:44;3.47;;;2.95;;
51840;SDS011;37888;53.246;6.658;2023-09-07T02:38:10;4.53;;;3.35;;
51840;SDS011;37888;53.246;6.658;2023-09-07T02:40:42;3.38;;;3.08;;
51840;SDS011;37888;53.246;6.658;2023-09-07T02:43:09;4.25;;;3.28;;
51840;SDS011;37888;53.246;6.658;2023-09-07T02:45:35;3.85;;;3.08;;
51840;SDS011;37888;53.246;6.658;2023-09-07T02:48:02;4.72;;;3.33;;
51840;SDS011;37888;53.246;6.658;2023-09-07T02:50:34;4.38;;;3.45;;
51840;SDS011;37888;53.246;6.658;2023-09-07T02:53:00;4.32;;;3.50;;
51840;SDS011;37888;53.246;6.658;2023-09-07T02:55:28;3.40;;;3.10;;
51840;SDS011;37888;53.246;6.658;2023-09-07T02:57:56;4.93;;;3.00;;
51840;SDS011;37888;53.246;6.658;2023-09-07T03:00:22;3.45;;;2.60;;
51840;SDS011;37888;53.246;6.658;2023-09-07T03:02:48;4.03;;;3.28;;
51840;SDS011;37888;53.246;6.658;2023-09-07T03:05:15;5.50;;;3.97;;
51840;SDS011;37888;53.246;6.658;2023-09-07T03:07:41;3.83;;;3.20;;
51840;SDS011;37888;53.246;6.658;2023-09-07T03:10:07;4.93;;;3.70;;
51840;SDS011;37888;53.246;6.658;2023-09-07T03:12:33;4.60;;;3.60;;
51840;SDS011;37888;53.246;6.658;2023-09-07T03:14:59;5.25;;;4.20;;
51840;SDS011;37888;53.246;6.658;2023-09-07T03:17:28;5.22;;;3.65;;
51840;SDS011;37888;53.246;6.658;2023-09-07T03:19:54;4.85;;;3.40;;
51840;SDS011;37888;53.246;6.658;2023-09-07T03:22:20;4.93;;;3.42;;
51840;SDS011;37888;53.246;6.658;2023-09-07T03:24:48;5.82;;;3.05;;
51840;SDS011;37888;53.246;6.658;2023-09-07T03:27:15;4.45;;;3.20;;
51840;SDS011;37888;53.246;6.658;2023-09-07T03:29:41;6.47;;;3.60;;
51840;SDS011;37888;53.246;6.658;2023-09-07T03:32:07;4.88;;;3.33;;
51840;SDS011;37888;53.246;6.658;2023-09-07T03:34:33;4.60;;;3.90;;
51840;SDS011;37888;53.246;6.658;2023-09-07T03:36:59;6.50;;;3.40;;
51840;SDS011;37888;53.246;6.658;2023-09-07T03:39:25;3.53;;;3.22;;
51840;SDS011;37888;53.246;6.658;2023-09-07T03:41:51;3.85;;;3.45;;
51840;SDS011;37888;53.246;6.658;2023-09-07T03:44:17;4.93;;;3.85;;
51840;SDS011;37888;53.246;6.658;2023-09-07T03:46:43;3.78;;;3.47;;
51840;SDS011;37888;53.246;6.658;2023-09-07T03:49:09;4.50;;;4.10;;
51840;SDS011;37888;53.246;6.658;2023-09-07T03:51:37;5.97;;;4.20;;
51840;SDS011;37888;53.246;6.658;2023-09-07T03:54:03;5.00;;;3.95;;
51840;SDS011;37888;53.246;6.658;2023-09-07T03:56:29;4.30;;;3.90;;
51840;SDS011;37888;53.246;6.658;2023-09-07T03:58:55;5.03;;;4.22;;
51840;SDS011;37888;53.246;6.658;2023-09-07T04:01:20;4.72;;;3.88;;
51840;SDS011;37888;53.246;6.658;2023-09-07T04:03:46;4.38;;;3.97;;
51840;SDS011;37888;53.246;6.658;2023-09-07T04:06:12;4.63;;;4.03;;
51840;SDS011;37888;53.246;6.658;2023-09-07T04:08:38;4.85;;;4.35;;
51840;SDS011;37888;53.246;6.658;2023-09-07T04:11:04;5.60;;;4.70;;
51840;SDS011;37888;53.246;6.658;2023-09-07T04:13:30;5.68;;;4.28;;
51840;SDS011;37888;53.246;6.658;2023-09-07T04:15:56;7.90;;;4.57;;
51840;SDS011;37888;53.246;6.658;2023-09-07T04:18:23;5.63;;;4.15;;
51840;SDS011;37888;53.246;6.658;2023-09-07T04:20:49;4.68;;;4.22;;
51840;SDS011;37888;53.246;6.658;2023-09-07T04:23:15;5.20;;;4.68;;
51840;SDS011;37888;53.246;6.658;2023-09-07T04:25:40;7.45;;;4.30;;
51840;SDS011;37888;53.246;6.658;2023-09-07T04:28:06;5.75;;;4.53;;
51840;SDS011;37888;53.246;6.658;2023-09-07T04:30:36;6.22;;;4.32;;
51840;SDS011;37888;53.246;6.658;2023-09-07T04:33:03;4.80;;;4.10;;
51840;SDS011;37888;53.246;6.658;2023-09-07T04:35:29;8.57;;;4.43;;
51840;SDS011;37888;53.246;6.658;2023-09-07T04:37:56;5.18;;;4.57;;
51840;SDS011;37888;53.246;6.658;2023-09-07T04:40:22;5.72;;;4.50;;
51840;SDS011;37888;53.246;6.658;2023-09-07T04:42:48;6.00;;;4.68;;
51840;SDS011;37888;53.246;6.658;2023-09-07T04:45:14;5.55;;;4.97;;
51840;SDS011;37888;53.246;6.658;2023-09-07T04:47:40;6.72;;;4.45;;
51840;SDS011;37888;53.246;6.658;2023-09-07T04:50:06;5.90;;;4.38;;
51840;SDS011;37888;53.246;6.658;2023-09-07T04:52:32;4.80;;;4.25;;
51840;SDS011;37888;53.246;6.658;2023-09-07T04:55:00;5.30;;;4.80;;
51840;SDS011;37888;53.246;6.658;2023-09-07T04:57:25;5.10;;;4.60;;
51840;SDS011;37888;53.246;6.658;2023-09-07T04:59:51;7.63;;;4.68;;
51840;SDS011;37888;53.246;6.658;2023-09-07T05:02:17;5.60;;;4.30;;
51840;SDS011;37888;53.246;6.658;2023-09-07T05:04:43;5.60;;;4.40;;
51840;SDS011;37888;53.246;6.658;2023-09-07T05:07:10;4.72;;;4.30;;
51840;SDS011;37888;53.246;6.658;2023-09-07T05:09:35;4.90;;;4.40;;
51840;SDS011;37888;53.246;6.658;2023-09-07T05:12:01;4.88;;;4.47;;
51840;SDS011;37888;53.246;6.658;2023-09-07T05:14:27;6.32;;;4.93;;
51840;SDS011;37888;53.246;6.658;2023-09-07T05:16:54;4.72;;;4.25;;
51840;SDS011;37888;53.246;6.658;2023-09-07T05:19:21;5.30;;;4.70;;
51840;SDS011;37888;53.246;6.658;2023-09-07T05:21:50;6.15;;;4.95;;
51840;SDS011;37888;53.246;6.658;2023-09-07T05:24:19;6.05;;;5.45;;
51840;SDS011;37888;53.246;6.658;2023-09-07T05:26:44;5.10;;;4.60;;
51840;SDS011;37888;53.246;6.658;2023-09-07T05:29:13;6.03;;;4.78;;
51840;SDS011;37888;53.246;6.658;2023-09-07T05:31:39;7.70;;;4.70;;
51840;SDS011;37888;53.246;6.658;2023-09-07T05:34:12;5.47;;;4.70;;
51840;SDS011;37888;53.246;6.658;2023-09-07T05:36:43;5.00;;;4.50;;
51840;SDS011;37888;53.246;6.658;2023-09-07T05:39:09;5.07;;;4.47;;
51840;SDS011;37888;53.246;6.658;2023-09-07T05:41:38;6.07;;;4.45;;
51840;SDS011;37888;53.246;6.658;2023-09-07T05:44:21;5.30;;;4.80;;
51840;SDS011;37888;53.246;6.658;2023-09-07T05:47:05;5.45;;;4.38;;
51840;SDS011;37888;53.246;6.658;2023-09-07T05:49:40;5.22;;;4.72;;
51840;SDS011;37888;53.246;6.658;2023-09-07T05:52:05;6.00;;;4.28;;
51840;SDS011;37888;53.246;6.658;2023-09-07T05:54:32;5.68;;;4.10;;
51840;SDS011;37888;53.246;6.658;2023-09-07T05:56:58;7.22;;;4.47;;
51840;SDS011;37888;53.246;6.658;2023-09-07T05:59:24;6.05;;;4.20;;
51840;SDS011;37888;53.246;6.658;2023-09-07T06:01:52;8.00;;;4.57;;
51840;SDS011;37888;53.246;6.658;2023-09-07T06:04:18;6.50;;;4.40;;
51840;SDS011;37888;53.246;6.658;2023-09-07T06:06:45;5.63;;;4.23;;
51840;SDS011;37888;53.246;6.658;2023-09-07T06:09:13;5.63;;;4.35;;
51840;SDS011;37888;53.246;6.658;2023-09-07T06:11:41;7.68;;;4.93;;
51840;SDS011;37888;53.246;6.658;2023-09-07T06:14:07;6.13;;;4.78;;
51840;SDS011;37888;53.246;6.658;2023-09-07T06:16:33;5.18;;;4.60;;
51840;SDS011;37888;53.246;6.658;2023-09-07T06:19:00;5.53;;;4.60;;
51840;SDS011;37888;53.246;6.658;2023-09-07T06:21:25;5.63;;;5.07;;
51840;SDS011;37888;53.246;6.658;2023-09-07T06:23:51;4.30;;;3.90;;
51840;SDS011;37888;53.246;6.658;2023-09-07T06:26:17;4.60;;;4.20;;
51840;SDS011;37888;53.246;6.658;2023-09-07T06:28:46;7.15;;;4.72;;
51840;SDS011;37888;53.246;6.658;2023-09-07T06:31:12;4.85;;;4.10;;
51840;SDS011;37888;53.246;6.658;2023-09-07T06:33:38;5.05;;;4.55;;
51840;SDS011;37888;53.246;6.658;2023-09-07T06:36:07;5.45;;;4.95;;
51840;SDS011;37888;53.246;6.658;2023-09-07T06:38:32;4.88;;;4.15;;
51840;SDS011;37888;53.246;6.658;2023-09-07T06:40:58;5.88;;;4.40;;
51840;SDS011;37888;53.246;6.658;2023-09-07T06:43:24;5.20;;;4.70;;
51840;SDS011;37888;53.246;6.658;2023-09-07T06:45:52;6.55;;;4.75;;
51840;SDS011;37888;53.246;6.658;2023-09-07T06:48:53;6.88;;;4.03;;
51840;SDS011;37888;53.246;6.658;2023-09-07T06:51:19;5.18;;;4.15;;
51840;SDS011;37888;53.246;6.658;2023-09-07T06:53:44;5.60;;;4.03;;
51840;SDS011;37888;53.246;6.658;2023-09-07T06:56:10;7.00;;;4.43;;
51840;SDS011;37888;53.246;6.658;2023-09-07T06:58:36;5.13;;;3.83;;
51840;SDS011;37888;53.246;6.658;2023-09-07T07:01:02;5.22;;;4.22;;
51840;SDS011;37888;53.246;6.658;2023-09-07T07:03:30;5.75;;;3.70;;
51840;SDS011;37888;53.246;6.658;2023-09-07T07:05:59;5.95;;;4.28;;
51840;SDS011;37888;53.246;6.658;2023-09-07T07:08:25;4.78;;;3.97;;
51840;SDS011;37888;53.246;6.658;2023-09-07T07:10:51;5.47;;;4.28;;
51840;SDS011;37888;53.246;6.658;2023-09-07T07:13:18;5.55;;;3.97;;
51840;SDS011;37888;53.246;6.658;2023-09-07T07:15:44;5.28;;;3.60;;
51840;SDS011;37888;53.246;6.658;2023-09-07T07:18:10;4.30;;;3.47;;
51840;SDS011;37888;53.246;6.658;2023-09-07T07:20:39;7.40;;;4.18;;
51840;SDS011;37888;53.246;6.658;2023-09-07T07:23:07;4.32;;;3.92;;
51840;SDS011;37888;53.246;6.658;2023-09-07T07:25:33;5.90;;;3.37;;
51840;SDS011;37888;53.246;6.658;2023-09-07T07:28:00;4.20;;;3.70;;
51840;SDS011;37888;53.246;6.658;2023-09-07T07:30:30;4.57;;;3.80;;
51840;SDS011;37888;53.246;6.658;2023-09-07T07:32:57;3.72;;;3.33;;
51840;SDS011;37888;53.246;6.658;2023-09-07T07:35:22;4.83;;;3.87;;
51840;SDS011;37888;53.246;6.658;2023-09-07T07:37:51;5.17;;;3.73;;
51840;SDS011;37888;53.246;6.658;2023-09-07T07:40:17;5.63;;;3.60;;
51840;SDS011;37888;53.246;6.658;2023-09-07T07:42:44;3.40;;;3.10;;
51840;SDS011;37888;53.246;6.658;2023-09-07T07:45:11;3.58;;;3.13;;
51840;SDS011;37888;53.246;6.658;2023-09-07T07:47:38;3.60;;;3.22;;
51840;SDS011;37888;53.246;6.658;2023-09-07T07:50:04;4.60;;;3.10;;
51840;SDS011;37888;53.246;6.658;2023-09-07T07:52:30;4.72;;;3.20;;
51840;SDS011;37888;53.246;6.658;2023-09-07T07:54:56;3.30;;;3.00;;
51840;SDS011;37888;53.246;6.658;2023-09-07T07:57:22;4.30;;;3.10;;
51840;SDS011;37888;53.246;6.658;2023-09-07T07:59:47;5.73;;;3.20;;
51840;SDS011;37888;53.246;6.658;2023-09-07T08:02:13;3.53;;;2.90;;
51840;SDS011;37888;53.246;6.658;2023-09-07T08:04:39;4.03;;;2.93;;
51840;SDS011;37888;53.246;6.658;2023-09-07T08:07:05;8.97;;;3.30;;
51840;SDS011;37888;53.246;6.658;2023-09-07T08:09:32;3.22;;;2.92;;
51840;SDS011;37888;53.246;6.658;2023-09-07T08:11:58;3.75;;;3.00;;
51840;SDS011;37888;53.246;6.658;2023-09-07T08:14:25;3.67;;;2.97;;
51840;SDS011;37888;53.246;6.658;2023-09-07T08:16:54;3.95;;;3.10;;
51840;SDS011;37888;53.246;6.658;2023-09-07T08:19:20;3.90;;;3.05;;
51840;SDS011;37888;53.246;6.658;2023-09-07T08:21:46;4.73;;;3.60;;
51840;SDS011;37888;53.246;6.658;2023-09-07T08:24:12;8.07;;;3.33;;
51840;SDS011;37888;53.246;6.658;2023-09-07T08:26:38;5.88;;;3.30;;
51840;SDS011;37888;53.246;6.658;2023-09-07T08:29:04;4.30;;;3.30;;
51840;SDS011;37888;53.246;6.658;2023-09-07T08:31:31;3.45;;;3.15;;
51840;SDS011;37888;53.246;6.658;2023-09-07T08:34:00;4.45;;;2.95;;
51840;SDS011;37888;53.246;6.658;2023-09-07T08:36:30;3.83;;;3.08;;
51840;SDS011;37888;53.246;6.658;2023-09-07T08:38:59;4.10;;;2.70;;
51840;SDS011;37888;53.246;6.658;2023-09-07T08:41:42;4.32;;;2.70;;
51840;SDS011;37888;53.246;6.658;2023-09-07T08:44:17;3.15;;;2.70;;
51840;SDS011;37888;53.246;6.658;2023-09-07T08:46:49;5.68;;;2.85;;
51840;SDS011;37888;53.246;6.658;2023-09-07T08:49:15;2.70;;;2.42;;
51840;SDS011;37888;53.246;6.658;2023-09-07T08:51:44;3.35;;;2.30;;
51840;SDS011;37888;53.246;6.658;2023-09-07T08:54:19;3.67;;;2.38;;
51840;SDS011;37888;53.246;6.658;2023-09-07T08:56:47;3.17;;;2.33;;
51840;SDS011;37888;53.246;6.658;2023-09-07T08:59:14;3.95;;;2.40;;
51840;SDS011;37888;53.246;6.658;2023-09-07T09:01:40;2.90;;;2.30;;
51840;SDS011;37888;53.246;6.658;2023-09-07T09:04:05;2.80;;;2.50;;
51840;SDS011;37888;53.246;6.658;2023-09-07T09:06:32;4.28;;;2.50;;
51840;SDS011;37888;53.246;6.658;2023-09-07T09:08:59;2.83;;;2.42;;
51840;SDS011;37888;53.246;6.658;2023-09-07T09:11:25;4.80;;;2.50;;
51840;SDS011;37888;53.246;6.658;2023-09-07T09:13:53;5.00;;;2.85;;
51840;SDS011;37888;53.246;6.658;2023-09-07T09:16:19;4.97;;;2.72;;
51840;SDS011;37888;53.246;6.658;2023-09-07T09:21:30;3.22;;;2.63;;
51840;SDS011;37888;53.246;6.658;2023-09-07T09:24:32;6.70;;;2.50;;
51840;SDS011;37888;53.246;6.658;2023-09-07T09:27:02;3.60;;;2.63;;
51840;SDS011;37888;53.246;6.658;2023-09-07T09:29:31;4.40;;;2.53;;
51840;SDS011;37888;53.246;6.658;2023-09-07T09:31:59;3.63;;;2.35;;
51840;SDS011;37888;53.246;6.658;2023-09-07T09:34:38;3.88;;;2.65;;
51840;SDS011;37888;53.246;6.658;2023-09-07T09:37:04;3.78;;;3.00;;
51840;SDS011;37888;53.246;6.658;2023-09-07T09:39:40;2.80;;;2.40;;
51840;SDS011;37888;53.246;6.658;2023-09-07T09:42:06;4.28;;;2.78;;
51840;SDS011;37888;53.246;6.658;2023-09-07T09:44:33;4.40;;;2.70;;
51840;SDS011;37888;53.246;6.658;2023-09-07T09:47:01;3.95;;;2.60;;
51840;SDS011;37888;53.246;6.658;2023-09-07T09:49:28;3.55;;;2.92;;
51840;SDS011;37888;53.246;6.658;2023-09-07T09:51:55;5.78;;;2.83;;
51840;SDS011;37888;53.246;6.658;2023-09-07T09:54:23;5.18;;;2.60;;
51840;SDS011;37888;53.246;6.658;2023-09-07T09:56:51;3.13;;;2.35;;
51840;SDS011;37888;53.246;6.658;2023-09-07T09:59:17;3.90;;;2.73;;
51840;SDS011;37888;53.246;6.658;2023-09-07T10:01:44;3.88;;;2.40;;
51840;SDS011;37888;53.246;6.658;2023-09-07T10:04:15;4.40;;;2.92;;
51840;SDS011;37888;53.246;6.658;2023-09-07T10:06:56;2.90;;;2.50;;
51840;SDS011;37888;53.246;6.658;2023-09-07T10:09:33;3.88;;;2.90;;
51840;SDS011;37888;53.246;6.658;2023-09-07T10:12:02;5.00;;;3.05;;
51840;SDS011;37888;53.246;6.658;2023-09-07T10:14:39;2.95;;;2.38;;
51840;SDS011;37888;53.246;6.658;2023-09-07T10:17:09;4.38;;;2.70;;
51840;SDS011;37888;53.246;6.658;2023-09-07T10:19:46;4.18;;;2.63;;
51840;SDS011;37888;53.246;6.658;2023-09-07T10:22:22;3.45;;;2.65;;
51840;SDS011;37888;53.246;6.658;2023-09-07T10:24:56;6.57;;;3.03;;
51840;SDS011;37888;53.246;6.658;2023-09-07T10:27:25;6.80;;;3.13;;
51840;SDS011;37888;53.246;6.658;2023-09-07T10:30:01;7.95;;;3.00;;
51840;SDS011;37888;53.246;6.658;2023-09-07T10:32:39;4.00;;;2.83;;
51840;SDS011;37888;53.246;6.658;2023-09-07T10:35:14;2.83;;;2.10;;
51840;SDS011;37888;53.246;6.658;2023-09-07T10:37:43;2.97;;;1.95;;
51840;SDS011;37888;53.246;6.658;2023-09-07T10:40:20;3.78;;;2.22;;
51840;SDS011;37888;53.246;6.658;2023-09-07T10:42:47;3.03;;;2.30;;
51840;SDS011;37888;53.246;6.658;2023-09-07T10:45:14;3.63;;;2.05;;
51840;SDS011;37888;53.246;6.658;2023-09-07T10:47:45;6.90;;;1.98;;
51840;SDS011;37888;53.246;6.658;2023-09-07T10:50:11;4.35;;;2.28;;
51840;SDS011;37888;53.246;6.658;2023-09-07T10:52:41;5.20;;;2.25;;
51840;SDS011;37888;53.246;6.658;2023-09-07T10:55:10;3.67;;;2.40;;
51840;SDS011;37888;53.246;6.658;2023-09-07T10:57:43;3.55;;;1.90;;
51840;SDS011;37888;53.246;6.658;2023-09-07T11:00:10;4.85;;;1.88;;
51840;SDS011;37888;53.246;6.658;2023-09-07T11:02:43;4.47;;;2.20;;
51840;SDS011;37888;53.246;6.658;2023-09-07T11:05:09;2.85;;;2.13;;
51840;SDS011;37888;53.246;6.658;2023-09-07T11:07:37;4.30;;;1.90;;
51840;SDS011;37888;53.246;6.658;2023-09-07T11:10:08;3.10;;;1.95;;
51840;SDS011;37888;53.246;6.658;2023-09-07T11:12:38;3.85;;;1.95;;
51840;SDS011;37888;53.246;6.658;2023-09-07T11:15:08;2.00;;;1.80;;
51840;SDS011;37888;53.246;6.658;2023-09-07T11:17:37;2.95;;;1.73;;
51840;SDS011;37888;53.246;6.658;2023-09-07T11:20:06;4.57;;;1.40;;
51840;SDS011;37888;53.246;6.658;2023-09-07T11:25:01;2.83;;;2.03;;
51840;SDS011;37888;53.246;6.658;2023-09-07T11:27:30;4.40;;;2.10;;
51840;SDS011;37888;53.246;6.658;2023-09-07T11:29:57;2.97;;;2.08;;
51840;SDS011;37888;53.246;6.658;2023-09-07T11:32:23;3.72;;;2.20;;
51840;SDS011;37888;53.246;6.658;2023-09-07T11:34:49;2.17;;;1.77;;
51840;SDS011;37888;53.246;6.658;2023-09-07T11:37:23;3.20;;;2.13;;
51840;SDS011;37888;53.246;6.658;2023-09-07T11:39:50;2.20;;;1.90;;
51840;SDS011;37888;53.246;6.658;2023-09-07T11:42:19;2.50;;;2.08;;
51840;SDS011;37888;53.246;6.658;2023-09-07T11:44:44;3.30;;;2.20;;
51840;SDS011;37888;53.246;6.658;2023-09-07T11:47:10;2.22;;;1.80;;
51840;SDS011;37888;53.246;6.658;2023-09-07T11:49:36;3.47;;;1.90;;
51840;SDS011;37888;53.246;6.658;2023-09-07T11:52:02;4.63;;;2.67;;
51840;SDS011;37888;53.246;6.658;2023-09-07T11:54:28;3.35;;;2.25;;
51840;SDS011;37888;53.246;6.658;2023-09-07T11:56:53;4.45;;;2.08;;
51840;SDS011;37888;53.246;6.658;2023-09-07T11:59:19;4.38;;;2.10;;
51840;SDS011;37888;53.246;6.658;2023-09-07T12:01:45;3.78;;;2.38;;
51840;SDS011;37888;53.246;6.658;2023-09-07T12:04:11;3.40;;;2.10;;
51840;SDS011;37888;53.246;6.658;2023-09-07T12:06:36;3.13;;;1.80;;
51840;SDS011;37888;53.246;6.658;2023-09-07T12:09:04;2.10;;;1.80;;
51840;SDS011;37888;53.246;6.658;2023-09-07T12:11:32;2.78;;;2.00;;
51840;SDS011;37888;53.246;6.658;2023-09-07T12:13:58;4.18;;;2.38;;
51840;SDS011;37888;53.246;6.658;2023-09-07T12:16:27;3.08;;;1.90;;
51840;SDS011;37888;53.246;6.658;2023-09-07T12:18:54;2.80;;;1.98;;
51840;SDS011;37888;53.246;6.658;2023-09-07T12:21:19;2.10;;;1.67;;
51840;SDS011;37888;53.246;6.658;2023-09-07T12:23:45;2.95;;;1.85;;
51840;SDS011;37888;53.246;6.658;2023-09-07T12:26:14;4.30;;;2.30;;
51840;SDS011;37888;53.246;6.658;2023-09-07T12:28:42;3.80;;;1.90;;
51840;SDS011;37888;53.246;6.658;2023-09-07T12:31:07;6.65;;;2.10;;
51840;SDS011;37888;53.246;6.658;2023-09-07T12:33:33;3.63;;;2.00;;
51840;SDS011;37888;53.246;6.658;2023-09-07T12:35:59;4.57;;;2.00;;
51840;SDS011;37888;53.246;6.658;2023-09-07T12:38:25;2.63;;;1.80;;
51840;SDS011;37888;53.246;6.658;2023-09-07T12:40:53;2.58;;;1.80;;
51840;SDS011;37888;53.246;6.658;2023-09-07T12:43:20;4.03;;;1.92;;
51840;SDS011;37888;53.246;6.658;2023-09-07T12:45:45;4.20;;;1.75;;
51840;SDS011;37888;53.246;6.658;2023-09-07T12:48:11;3.90;;;1.90;;
51840;SDS011;37888;53.246;6.658;2023-09-07T12:50:37;2.30;;;1.50;;
51840;SDS011;37888;53.246;6.658;2023-09-07T12:53:05;4.38;;;1.83;;
51840;SDS011;37888;53.246;6.658;2023-09-07T12:55:31;10.33;;;1.93;;
51840;SDS011;37888;53.246;6.658;2023-09-07T12:57:58;4.32;;;2.10;;
51840;SDS011;37888;53.246;6.658;2023-09-07T13:00:25;4.95;;;2.25;;
51840;SDS011;37888;53.246;6.658;2023-09-07T13:02:51;3.40;;;1.85;;
51840;SDS011;37888;53.246;6.658;2023-09-07T13:05:23;3.85;;;2.10;;
51840;SDS011;37888;53.246;6.658;2023-09-07T13:07:48;4.35;;;2.10;;
51840;SDS011;37888;53.246;6.658;2023-09-07T13:10:14;9.98;;;2.22;;
51840;SDS011;37888;53.246;6.658;2023-09-07T13:12:40;3.93;;;1.80;;
51840;SDS011;37888;53.246;6.658;2023-09-07T13:15:06;2.35;;;1.90;;
51840;SDS011;37888;53.246;6.658;2023-09-07T13:17:32;2.38;;;1.70;;
51840;SDS011;37888;53.246;6.658;2023-09-07T13:20:05;4.20;;;2.03;;
51840;SDS011;37888;53.246;6.658;2023-09-07T13:22:34;4.03;;;2.00;;
51840;SDS011;37888;53.246;6.658;2023-09-07T13:25:00;2.55;;;1.83;;
51840;SDS011;37888;53.246;6.658;2023-09-07T13:27:26;3.60;;;2.05;;
51840;SDS011;37888;53.246;6.658;2023-09-07T13:29:52;2.53;;;2.03;;
51840;SDS011;37888;53.246;6.658;2023-09-07T13:32:36;3.95;;;1.85;;
51840;SDS011;37888;53.246;6.658;2023-09-07T13:35:04;4.55;;;2.10;;
51840;SDS011;37888;53.246;6.658;2023-09-07T13:37:33;3.00;;;2.00;;
51840;SDS011;37888;53.246;6.658;2023-09-07T13:40:00;3.05;;;2.00;;
51840;SDS011;37888;53.246;6.658;2023-09-07T13:42:28;2.95;;;1.60;;
51840;SDS011;37888;53.246;6.658;2023-09-07T13:44:54;4.72;;;1.80;;
51840;SDS011;37888;53.246;6.658;2023-09-07T13:47:21;3.88;;;1.77;;
51840;SDS011;37888;53.246;6.658;2023-09-07T13:49:47;4.45;;;1.60;;
51840;SDS011;37888;53.246;6.658;2023-09-07T13:52:13;3.00;;;2.00;;
51840;SDS011;37888;53.246;6.658;2023-09-07T13:54:38;2.03;;;1.63;;
51840;SDS011;37888;53.246;6.658;2023-09-07T13:57:04;3.95;;;1.60;;
51840;SDS011;37888;53.246;6.658;2023-09-07T13:59:30;2.30;;;1.80;;
51840;SDS011;37888;53.246;6.658;2023-09-07T14:01:59;3.42;;;2.13;;
51840;SDS011;37888;53.246;6.658;2023-09-07T14:04:26;2.58;;;1.67;;
51840;SDS011;37888;53.246;6.658;2023-09-07T14:09:17;4.85;;;1.85;;
51840;SDS011;37888;53.246;6.658;2023-09-07T14:11:45;3.67;;;1.88;;
51840;SDS011;37888;53.246;6.658;2023-09-07T14:14:10;3.00;;;1.70;;
51840;SDS011;37888;53.246;6.658;2023-09-07T14:16:36;4.30;;;2.10;;
51840;SDS011;37888;53.246;6.658;2023-09-07T14:19:02;4.37;;;2.20;;
51840;SDS011;37888;53.246;6.658;2023-09-07T14:21:28;4.57;;;1.83;;
51840;SDS011;37888;53.246;6.658;2023-09-07T14:23:53;2.97;;;2.00;;
51840;SDS011;37888;53.246;6.658;2023-09-07T14:26:19;3.43;;;1.80;;
51840;SDS011;37888;53.246;6.658;2023-09-07T14:28:45;4.13;;;1.60;;
51840;SDS011;37888;53.246;6.658;2023-09-07T14:31:10;4.00;;;1.90;;
51840;SDS011;37888;53.246;6.658;2023-09-07T14:33:37;2.53;;;1.70;;
51840;SDS011;37888;53.246;6.658;2023-09-07T14:36:07;2.88;;;1.95;;
51840;SDS011;37888;53.246;6.658;2023-09-07T14:38:34;3.67;;;1.92;;
51840;SDS011;37888;53.246;6.658;2023-09-07T14:41:06;4.47;;;2.00;;
51840;SDS011;37888;53.246;6.658;2023-09-07T14:43:33;2.45;;;1.70;;
51840;SDS011;37888;53.246;6.658;2023-09-07T14:45:59;3.95;;;2.00;;
51840;SDS011;37888;53.246;6.658;2023-09-07T14:48:25;2.33;;;1.80;;
51840;SDS011;37888;53.246;6.658;2023-09-07T14:50:53;2.40;;;1.67;;
51840;SDS011;37888;53.246;6.658;2023-09-07T14:53:19;4.17;;;1.87;;
51840;SDS011;37888;53.246;6.658;2023-09-07T14:55:44;2.87;;;1.83;;
51840;SDS011;37888;53.246;6.658;2023-09-07T14:58:10;2.97;;;1.73;;
51840;SDS011;37888;53.246;6.658;2023-09-07T15:00:36;4.70;;;2.10;;